createdAt,value
2023-03-26T00:00:50.334Z,5.87
2023-03-26T00:03:22.644Z,5.77
2023-03-26T00:06:04.072Z,6.40
2023-03-26T00:08:38.423Z,5.87
2023-03-26T00:11:16.014Z,5.87
2023-03-26T00:13:49.660Z,5.73
2023-03-26T00:16:21.644Z,5.47
2023-03-26T00:18:53.797Z,6.07
2023-03-26T00:21:28.986Z,5.53
2023-03-26T00:24:06.791Z,6.23
2023-03-26T00:26:38.909Z,5.87
2023-03-26T00:29:11.980Z,5.97
2023-03-26T00:31:46.427Z,5.30
2023-03-26T00:34:18.887Z,6.40
2023-03-26T00:36:54.761Z,6.00
2023-03-26T00:39:27.379Z,5.93
2023-03-26T00:41:59.293Z,5.50
2023-03-26T00:44:31.444Z,6.03
2023-03-26T00:47:03.640Z,5.77
2023-03-26T00:49:35.745Z,5.47
2023-03-26T00:52:08.723Z,5.70
2023-03-26T00:54:40.980Z,5.50
2023-03-26T00:57:20.143Z,5.63
2023-03-26T00:59:57.707Z,5.10
2023-03-26T01:02:29.776Z,4.97
2023-03-26T01:05:36.989Z,5.93
2023-03-26T01:08:30.706Z,5.40
2023-03-26T01:11:33.450Z,5.17
2023-03-26T01:14:11.871Z,5.23
2023-03-26T01:16:52.782Z,5.17
2023-03-26T01:19:34.102Z,5.70
2023-03-26T01:22:11.242Z,5.17
2023-03-26T01:24:46.182Z,5.20
2023-03-26T01:27:28.026Z,5.67
2023-03-26T01:30:25.373Z,4.73
2023-03-26T01:33:19.440Z,5.40
2023-03-26T01:36:30.144Z,5.13
2023-03-26T01:39:49.685Z,5.23
2023-03-26T01:42:56.948Z,5.33
2023-03-26T01:45:36.189Z,5.07
2023-03-26T01:48:09.512Z,5.43
2023-03-26T01:50:41.651Z,5.00
2023-03-26T01:53:14.819Z,5.33
2023-03-26T01:56:18.716Z,5.47
2023-03-26T01:59:16.724Z,5.00
2023-03-26T02:02:02.478Z,4.70
2023-03-26T02:05:04.527Z,5.33
2023-03-26T02:07:52.165Z,4.73
2023-03-26T02:10:35.808Z,4.93
2023-03-26T02:13:07.902Z,5.00
2023-03-26T02:15:41.122Z,5.07
2023-03-26T02:18:13.550Z,5.17
2023-03-26T02:20:45.485Z,4.80
2023-03-26T02:23:17.443Z,5.50
2023-03-26T02:25:49.490Z,5.40
2023-03-26T02:28:21.559Z,4.63
2023-03-26T02:30:57.668Z,5.00
2023-03-26T02:33:31.488Z,5.53
2023-03-26T02:36:04.676Z,4.87
2023-03-26T02:38:36.608Z,5.23
2023-03-26T02:41:08.596Z,5.30
2023-03-26T02:43:40.561Z,5.30
2023-03-26T02:46:12.659Z,5.20
2023-03-26T02:48:44.668Z,5.67
2023-03-26T02:51:18.254Z,4.90
2023-03-26T02:53:50.195Z,4.70
2023-03-26T02:56:22.191Z,4.63
2023-03-26T02:58:54.436Z,4.77
2023-03-26T03:01:26.621Z,5.00
2023-03-26T03:03:58.654Z,5.50
2023-03-26T03:06:31.060Z,4.27
2023-03-26T03:09:03.329Z,4.37
2023-03-26T03:11:36.702Z,4.53
2023-03-26T03:14:08.828Z,4.70
2023-03-26T03:16:41.234Z,4.50
2023-03-26T03:19:13.898Z,5.20
2023-03-26T03:21:46.173Z,4.83
2023-03-26T03:24:18.693Z,4.30
2023-03-26T03:26:55.105Z,4.67
2023-03-26T03:29:26.994Z,4.83
2023-03-26T03:32:00.268Z,4.13
2023-03-26T03:34:32.274Z,4.27
2023-03-26T03:37:05.622Z,3.90
2023-03-26T03:39:37.715Z,4.10
2023-03-26T03:42:09.907Z,4.00
2023-03-26T03:44:41.891Z,4.13
2023-03-26T03:47:15.537Z,4.03
2023-03-26T03:49:47.455Z,3.90
2023-03-26T03:52:19.475Z,4.00
2023-03-26T03:54:51.868Z,4.20
2023-03-26T03:57:24.102Z,4.50
2023-03-26T03:59:58.262Z,3.43
2023-03-26T04:02:35.236Z,3.73
2023-03-26T04:05:07.652Z,4.73
2023-03-26T04:07:40.371Z,4.23
2023-03-26T04:10:16.119Z,3.23
2023-03-26T04:12:48.244Z,3.23
2023-03-26T04:15:20.405Z,3.27
2023-03-26T04:17:52.384Z,2.87
2023-03-26T04:20:24.404Z,4.07
2023-03-26T04:22:56.396Z,3.13
2023-03-26T04:25:30.506Z,2.80
2023-03-26T04:28:06.858Z,3.57
2023-03-26T04:30:42.342Z,3.00
2023-03-26T04:33:15.526Z,3.17
2023-03-26T04:35:48.553Z,3.20
2023-03-26T04:38:20.720Z,3.20
2023-03-26T04:40:53.164Z,3.33
2023-03-26T04:43:25.282Z,3.33
2023-03-26T04:45:57.430Z,3.20
2023-03-26T04:48:30.393Z,3.00
2023-03-26T04:51:02.673Z,2.87
2023-03-26T04:53:35.718Z,3.10
2023-03-26T04:56:22.027Z,3.37
2023-03-26T04:58:59.933Z,3.03
2023-03-26T05:01:33.209Z,3.33
2023-03-26T05:04:05.499Z,3.23
2023-03-26T05:06:38.095Z,3.07
2023-03-26T05:09:10.763Z,3.30
2023-03-26T05:11:42.733Z,3.70
2023-03-26T05:14:14.671Z,3.37
2023-03-26T05:16:50.322Z,3.30
2023-03-26T05:19:22.643Z,3.40
2023-03-26T05:21:54.642Z,3.33
2023-03-26T05:24:28.741Z,3.67
2023-03-26T05:27:00.664Z,3.50
2023-03-26T05:29:32.650Z,3.70
2023-03-26T05:32:04.977Z,3.97
2023-03-26T05:34:38.312Z,4.20
2023-03-26T05:37:10.281Z,3.70
2023-03-26T05:39:43.846Z,3.40
2023-03-26T05:42:15.783Z,3.60
2023-03-26T05:44:47.753Z,3.27
2023-03-26T05:47:19.692Z,3.40
2023-03-26T05:49:51.696Z,3.87
2023-03-26T05:52:23.606Z,3.57
2023-03-26T05:54:55.730Z,3.47
2023-03-26T05:57:31.113Z,3.87
2023-03-26T06:00:08.840Z,3.90
2023-03-26T06:02:42.777Z,3.30
2023-03-26T06:05:14.949Z,3.73
2023-03-26T06:07:46.950Z,3.50
2023-03-26T06:10:19.235Z,3.23
2023-03-26T06:12:51.184Z,3.40
2023-03-26T06:15:23.505Z,3.27
2023-03-26T06:17:56.167Z,3.70
2023-03-26T06:21:24.553Z,3.53
2023-03-26T06:23:57.075Z,3.67
2023-03-26T06:26:29.026Z,3.40
2023-03-26T06:29:01.297Z,3.37
2023-03-26T06:31:51.576Z,3.97
2023-03-26T06:34:23.539Z,3.90
2023-03-26T06:36:56.417Z,3.77
2023-03-26T06:39:28.475Z,3.30
2023-03-26T06:42:00.719Z,4.13
2023-03-26T06:44:33.053Z,3.83
2023-03-26T06:47:06.003Z,4.07
2023-03-26T06:49:38.520Z,3.40
2023-03-26T06:52:10.853Z,3.97
2023-03-26T06:54:43.086Z,3.87
2023-03-26T06:57:15.770Z,3.63
2023-03-26T06:59:52.366Z,4.07
2023-03-26T07:02:25.182Z,3.70
2023-03-26T07:04:58.647Z,3.80
2023-03-26T07:07:31.833Z,3.83
2023-03-26T07:10:08.261Z,3.67
2023-03-26T07:12:41.749Z,3.60
2023-03-26T07:15:18.990Z,3.50
2023-03-26T07:17:53.534Z,3.30
2023-03-26T07:20:26.416Z,4.00
2023-03-26T07:22:59.650Z,3.63
2023-03-26T07:25:35.679Z,3.63
2023-03-26T07:29:03.715Z,3.40
2023-03-26T07:32:08.452Z,3.10
2023-03-26T07:34:58.557Z,3.77
2023-03-26T07:38:06.229Z,3.37
2023-03-26T07:40:38.212Z,3.97
2023-03-26T07:43:48.145Z,3.40
2023-03-26T07:46:29.749Z,3.60
2023-03-26T07:49:05.105Z,3.43
2023-03-26T07:51:37.889Z,3.57
2023-03-26T07:54:11.792Z,3.87
2023-03-26T07:57:04.362Z,3.77
2023-03-26T08:00:01.379Z,3.50
2023-03-26T08:03:10.021Z,3.50
2023-03-26T08:05:57.311Z,4.17
2023-03-26T08:09:13.440Z,3.20
2023-03-26T08:11:57.167Z,3.80
2023-03-26T08:15:23.273Z,3.80
2023-03-26T08:18:10.592Z,3.60
2023-03-26T08:20:50.353Z,3.57
2023-03-26T08:24:00.769Z,3.30
2023-03-26T08:26:51.437Z,3.90
2023-03-26T08:29:42.270Z,5.03
2023-03-26T08:32:18.778Z,3.90
2023-03-26T08:34:52.808Z,4.17
2023-03-26T08:37:29.682Z,5.10
2023-03-26T08:40:01.803Z,6.10
2023-03-26T08:43:24.588Z,4.23
2023-03-26T08:46:15.348Z,4.37
2023-03-26T08:49:13.082Z,4.67
2023-03-26T08:52:06.846Z,5.50
2023-03-26T08:55:36.646Z,4.40
2023-03-26T08:59:05.702Z,4.97
2023-03-26T09:01:49.575Z,3.73
2023-03-26T09:04:41.428Z,4.00
2023-03-26T09:07:41.393Z,4.20
2023-03-26T09:11:03.722Z,4.37
2023-03-26T09:13:41.995Z,3.90
2023-03-26T09:16:38.632Z,5.13
2023-03-26T09:19:41.901Z,4.27
2023-03-26T09:22:51.973Z,3.20
2023-03-26T09:26:11.421Z,3.20
2023-03-26T09:29:28.871Z,3.83
2023-03-26T09:32:38.207Z,3.10
2023-03-26T09:35:50.473Z,3.00
2023-03-26T09:38:48.029Z,3.10
2023-03-26T09:42:05.218Z,3.30
2023-03-26T09:45:10.689Z,3.10
2023-03-26T09:48:06.011Z,2.80
2023-03-26T09:51:19.236Z,2.90
2023-03-26T09:54:23.578Z,2.90
2023-03-26T09:57:25.613Z,2.97
2023-03-26T10:00:25.571Z,2.80
2023-03-26T10:03:30.730Z,2.20
2023-03-26T10:06:37.353Z,2.57
2023-03-26T10:09:26.264Z,2.57
2023-03-26T10:12:25.009Z,2.03
2023-03-26T10:15:25.410Z,1.80
2023-03-26T10:18:27.697Z,1.77
2023-03-26T10:21:10.579Z,1.27
2023-03-26T10:24:09.858Z,1.30
2023-03-26T10:27:24.766Z,1.40
2023-03-26T10:30:49.478Z,1.43
2023-03-26T10:34:19.422Z,1.63
2023-03-26T10:37:22.090Z,1.60
2023-03-26T10:40:06.006Z,1.63
2023-03-26T10:42:59.698Z,1.70
2023-03-26T10:46:29.343Z,1.70
2023-03-26T10:49:10.234Z,1.50
2023-03-26T10:51:59.945Z,1.60
2023-03-26T10:54:52.363Z,1.40
2023-03-26T10:57:39.657Z,1.20
2023-03-26T11:00:16.692Z,1.03
2023-03-26T11:03:24.874Z,1.23
2023-03-26T11:06:19.884Z,1.10
2023-03-26T11:09:08.602Z,1.10
2023-03-26T11:12:25.572Z,1.20
2023-03-26T11:15:33.125Z,1.20
2023-03-26T11:18:58.132Z,1.00
2023-03-26T11:22:06.343Z,1.93
2023-03-26T11:25:15.244Z,1.40
2023-03-26T11:28:02.243Z,1.30
2023-03-26T11:31:06.650Z,1.30
2023-03-26T11:33:47.812Z,1.20
2023-03-26T11:36:29.915Z,1.37
2023-03-26T11:39:10.923Z,1.23
2023-03-26T11:41:43.775Z,1.50
2023-03-26T11:44:38.109Z,1.40
2023-03-26T11:47:16.356Z,1.53
2023-03-26T11:49:54.003Z,1.40
2023-03-26T11:52:30.587Z,1.40
2023-03-26T11:55:05.292Z,1.43
2023-03-26T11:57:43.289Z,1.50
2023-03-26T12:00:23.169Z,1.20
2023-03-26T12:02:59.323Z,1.47
2023-03-26T12:05:36.810Z,1.60
2023-03-26T12:08:27.200Z,1.60
2023-03-26T12:11:12.785Z,1.70
2023-03-26T12:14:05.814Z,1.60
2023-03-26T12:16:38.151Z,1.73
2023-03-26T12:19:22.474Z,1.90
2023-03-26T12:21:56.590Z,2.10
2023-03-26T12:24:33.193Z,2.03
2023-03-26T12:27:26.209Z,1.80
2023-03-26T12:30:22.578Z,1.70
2023-03-26T12:33:26.441Z,1.87
2023-03-26T12:36:00.605Z,2.00
2023-03-26T12:38:36.063Z,1.73
2023-03-26T12:43:40.558Z,1.70
2023-03-26T12:44:54.978Z,1.77
2023-03-26T12:48:00.564Z,1.93
2023-03-26T12:50:18.603Z,2.03
2023-03-26T12:53:47.244Z,2.20
2023-03-26T12:57:12.464Z,2.20
2023-03-26T13:00:06.686Z,2.20
2023-03-26T13:03:00.253Z,2.40
2023-03-26T13:05:58.471Z,2.43
2023-03-26T13:09:07.269Z,2.37
2023-03-26T13:11:56.132Z,2.47
2023-03-26T13:15:25.270Z,2.20
2023-03-26T13:18:52.952Z,2.90
2023-03-26T13:21:42.516Z,2.43
2023-03-26T13:24:35.896Z,2.70
2023-03-26T13:27:28.427Z,2.50
2023-03-26T13:30:21.883Z,2.30
2023-03-26T13:33:38.574Z,2.07
2023-03-26T13:36:43.216Z,2.27
2023-03-26T13:39:31.684Z,2.43
2023-03-26T13:42:37.656Z,2.77
2023-03-26T13:45:43.304Z,3.00
2023-03-26T13:48:49.161Z,3.10
2023-03-26T13:51:44.803Z,3.20
2023-03-26T13:54:28.435Z,3.00
2023-03-26T13:57:29.533Z,2.67
2023-03-26T14:00:15.085Z,2.70
2023-03-26T14:02:59.527Z,2.97
2023-03-26T14:05:42.734Z,2.80
2023-03-26T14:08:33.362Z,3.03
2023-03-26T14:11:13.278Z,2.77
2023-03-26T14:13:52.895Z,3.00
2023-03-26T14:16:53.771Z,2.90
2023-03-26T14:20:01.321Z,3.27
2023-03-26T14:23:05.532Z,2.93
2023-03-26T14:26:15.611Z,3.13
2023-03-26T14:29:40.636Z,3.60
2023-03-26T14:33:03.296Z,4.57
2023-03-26T14:36:03.720Z,5.47
2023-03-26T14:39:02.883Z,5.20
2023-03-26T14:42:12.895Z,5.43
2023-03-26T14:45:05.909Z,5.53
2023-03-26T14:48:37.341Z,6.23
2023-03-26T14:51:20.387Z,5.53
2023-03-26T14:54:02.740Z,5.63
2023-03-26T14:57:09.419Z,5.00
2023-03-26T15:00:07.341Z,5.13
2023-03-26T15:03:10.006Z,4.53
2023-03-26T15:06:06.641Z,4.30
2023-03-26T15:09:23.074Z,3.57
2023-03-26T15:12:54.827Z,4.10
2023-03-26T15:16:11.700Z,3.27
2023-03-26T15:19:40.705Z,3.17
2023-03-26T15:23:12.385Z,4.43
2023-03-26T15:26:16.173Z,3.50
2023-03-26T15:29:09.733Z,3.63
2023-03-26T15:32:13.889Z,3.73
2023-03-26T15:35:17.003Z,3.60
2023-03-26T15:38:10.828Z,3.93
2023-03-26T15:41:26.027Z,4.10
2023-03-26T15:44:22.302Z,3.70
2023-03-26T15:47:36.157Z,3.47
2023-03-26T15:50:29.632Z,4.27
2023-03-26T15:53:35.219Z,4.00
2023-03-26T15:56:22.301Z,4.47
2023-03-26T15:59:28.406Z,4.03
2023-03-26T16:02:19.195Z,3.70
2023-03-26T16:05:21.980Z,4.30
2023-03-26T16:08:27.782Z,4.20
2023-03-26T16:11:07.727Z,3.80
2023-03-26T16:14:17.424Z,4.07
2023-03-26T16:17:02.122Z,3.53
2023-03-26T16:20:33.664Z,4.10
2023-03-26T16:23:24.634Z,4.40
2023-03-26T16:26:18.791Z,4.23
2023-03-26T16:29:28.656Z,4.90
2023-03-26T16:32:16.603Z,3.77
2023-03-26T16:35:00.453Z,3.57
2023-03-26T16:37:33.716Z,3.40
2023-03-26T16:40:17.982Z,3.83
2023-03-26T16:43:58.969Z,3.27
2023-03-26T16:47:27.710Z,3.37
2023-03-26T16:50:36.493Z,2.87
2023-03-26T16:53:33.705Z,3.20
2023-03-26T16:56:11.786Z,2.80
2023-03-26T16:58:53.797Z,3.00
2023-03-26T17:01:45.808Z,3.00
2023-03-26T17:04:27.950Z,2.90
2023-03-26T17:07:37.802Z,3.17
2023-03-26T17:11:02.163Z,2.97
2023-03-26T17:14:11.085Z,2.80
2023-03-26T17:17:03.740Z,2.90
2023-03-26T17:19:42.971Z,3.37
2023-03-26T17:22:40.704Z,2.90
2023-03-26T17:25:57.608Z,3.07
2023-03-26T17:28:44.573Z,2.97
2023-03-26T17:31:57.282Z,2.70
2023-03-26T17:34:54.388Z,3.30
2023-03-26T17:37:47.932Z,3.10
2023-03-26T17:40:56.941Z,2.93
2023-03-26T17:43:52.458Z,3.07
2023-03-26T17:46:37.313Z,3.40
2023-03-26T17:49:12.020Z,2.70
2023-03-26T17:51:58.354Z,3.47
2023-03-26T17:54:44.272Z,2.90
2023-03-26T17:57:40.316Z,3.10
2023-03-26T18:00:42.609Z,3.50
2023-03-26T18:03:31.137Z,3.00
2023-03-26T18:06:47.955Z,3.40
2023-03-26T18:09:57.902Z,2.83
2023-03-26T18:12:53.390Z,2.92
2023-03-26T18:15:39.891Z,3.17
2023-03-26T18:18:22.283Z,2.77
2023-03-26T18:20:57.641Z,2.80
2023-03-26T18:23:44.210Z,2.40
2023-03-26T18:26:31.619Z,2.40
2023-03-26T18:29:26.690Z,2.60
2023-03-26T18:32:22.077Z,2.70
2023-03-26T18:34:59.968Z,2.60
2023-03-26T18:37:36.113Z,2.50
2023-03-26T18:40:21.529Z,2.70
2023-03-26T18:42:58.580Z,2.57
2023-03-26T18:45:39.613Z,3.07
2023-03-26T18:48:19.211Z,2.63
2023-03-26T18:51:05.425Z,2.73
2023-03-26T18:53:45.150Z,2.90
2023-03-26T18:56:36.787Z,2.70
2023-03-26T18:59:31.665Z,3.00
2023-03-26T19:02:12.029Z,2.73
2023-03-26T19:04:47.119Z,2.73
2023-03-26T19:07:24.936Z,2.20
2023-03-26T19:09:57.238Z,2.90
2023-03-26T19:12:33.217Z,2.30
2023-03-26T19:15:12.911Z,2.27
2023-03-26T19:17:49.367Z,2.63
2023-03-26T19:20:28.006Z,2.53
2023-03-26T19:23:00.232Z,2.50
2023-03-26T19:25:46.146Z,2.30
2023-03-26T19:28:24.800Z,2.73
2023-03-26T19:31:09.309Z,2.33
2023-03-26T19:33:44.294Z,2.53
2023-03-26T19:36:29.765Z,2.20
2023-03-26T19:39:02.459Z,2.40
2023-03-26T19:41:41.122Z,2.10
2023-03-26T19:44:28.908Z,2.33
2023-03-26T19:47:19.277Z,2.50
2023-03-26T19:50:07.354Z,2.10
2023-03-26T19:52:39.510Z,1.80
2023-03-26T19:55:27.199Z,2.27
2023-03-26T19:57:59.486Z,1.93
2023-03-26T20:00:34.760Z,1.93
2023-03-26T20:03:08.977Z,1.97
2023-03-26T20:05:41.283Z,2.23
2023-03-26T20:08:26.839Z,2.17
2023-03-26T20:10:59.651Z,2.33
2023-03-26T20:13:31.934Z,2.00
2023-03-26T20:16:21.182Z,1.73
2023-03-26T20:18:57.292Z,2.47
2023-03-26T20:21:32.272Z,2.33
2023-03-26T20:24:16.979Z,2.30
2023-03-26T20:26:48.902Z,2.50
2023-03-26T20:29:21.016Z,2.13
2023-03-26T20:31:53.104Z,2.57
2023-03-26T20:34:25.152Z,2.10
2023-03-26T20:37:01.118Z,2.17
2023-03-26T20:39:33.468Z,2.20
2023-03-26T20:42:05.957Z,2.47
2023-03-26T20:44:38.117Z,2.33
2023-03-26T20:47:11.711Z,2.17
2023-03-26T20:49:43.855Z,2.47
2023-03-26T20:52:15.831Z,2.10
2023-03-26T20:54:48.982Z,1.90
2023-03-26T20:57:21.062Z,2.30
2023-03-26T20:59:55.889Z,2.50
2023-03-26T21:02:28.003Z,2.20
2023-03-26T21:05:00.146Z,1.77
2023-03-26T21:07:34.856Z,2.43
2023-03-26T21:10:08.253Z,2.43
2023-03-26T21:13:08.521Z,2.37
2023-03-26T21:15:40.898Z,2.10
2023-03-26T21:18:13.572Z,2.20
2023-03-26T21:21:01.435Z,2.10
2023-03-26T21:24:36.129Z,2.07
2023-03-26T21:27:41.969Z,2.10
2023-03-26T21:30:16.703Z,2.10
2023-03-26T21:32:49.421Z,2.10
2023-03-26T21:35:22.022Z,2.20
2023-03-26T21:37:57.669Z,2.10
2023-03-26T21:40:29.957Z,1.70
2023-03-26T21:43:02.367Z,2.10
2023-03-26T21:45:34.924Z,2.50
2023-03-26T21:48:07.717Z,2.27
2023-03-26T21:50:40.462Z,2.37
2023-03-26T21:53:22.526Z,2.17
2023-03-26T21:56:26.344Z,2.30
2023-03-26T21:59:39.957Z,2.00
2023-03-26T22:02:27.936Z,1.93
2023-03-26T22:05:26.667Z,1.90
2023-03-26T22:08:04.733Z,2.10
2023-03-26T22:10:38.433Z,2.00
2023-03-26T22:13:10.563Z,2.73
2023-03-26T22:15:43.338Z,2.00
2023-03-26T22:18:15.713Z,2.20
2023-03-26T22:20:49.492Z,2.00
2023-03-26T22:23:21.493Z,2.20
2023-03-26T22:25:53.505Z,2.37
2023-03-26T22:28:30.795Z,2.10
2023-03-26T22:31:09.481Z,2.07
2023-03-26T22:33:41.864Z,2.10
2023-03-26T22:36:23.135Z,2.40
2023-03-26T22:38:58.721Z,2.00
2023-03-26T22:41:30.763Z,2.47
2023-03-26T22:44:16.888Z,2.33
2023-03-26T22:46:52.467Z,1.93
2023-03-26T22:49:30.288Z,2.30
2023-03-26T22:52:02.386Z,2.23
2023-03-26T22:54:38.748Z,1.90
2023-03-26T22:57:11.123Z,2.07
2023-03-26T22:59:43.620Z,2.23
2023-03-26T23:02:16.760Z,2.27
2023-03-26T23:04:48.899Z,2.00
2023-03-26T23:07:20.959Z,2.30
2023-03-26T23:09:53.806Z,2.37
2023-03-26T23:12:25.758Z,2.17
2023-03-26T23:14:58.388Z,2.03
2023-03-26T23:17:35.785Z,2.50
2023-03-26T23:20:14.895Z,2.27
2023-03-26T23:22:47.230Z,2.30
2023-03-26T23:25:20.187Z,2.10
2023-03-26T23:27:53.784Z,2.20
2023-03-26T23:30:25.872Z,2.40
2023-03-26T23:32:58.135Z,1.97
2023-03-26T23:35:30.308Z,2.53
2023-03-26T23:38:02.374Z,2.13
2023-03-26T23:40:34.415Z,2.80
2023-03-26T23:43:06.939Z,2.30
2023-03-26T23:45:44.968Z,2.10
2023-03-26T23:48:23.307Z,2.90
2023-03-26T23:51:04.453Z,2.40
2023-03-26T23:53:36.653Z,2.27
2023-03-26T23:56:13.562Z,2.10
2023-03-26T23:58:45.646Z,1.90
